Time;durP1;ratioP1;P1;durP2;ratioP2;P2;SDS_P1;SDS_P2;PMS_P1;PMS_P2;Temp;Humidity;BMP_temperature;BMP_pressure;BME280_temperature;BME280_humidity;BME280_pressure;Samples;Min_cycle;Max_cycle;Signal;HPM_P1;HPM_P2
2021/11/11 00:00:39;;;;;;;33.65;24.02;;;128.70;2252.80;;;;;;5107009;28;20035;-75
2021/11/11 00:03:05;;;;;;;35.90;23.25;;;128.70;2252.80;;;;;;5114587;27;20080;-75
2021/11/11 00:05:32;;;;;;;33.90;22.92;;;128.60;2252.80;;;;;;5107249;28;20028;-75
2021/11/11 00:07:58;;;;;;;39.42;19.80;;;128.60;2252.80;;;;;;5112159;28;20016;-75
2021/11/11 00:10:24;;;;;;;27.92;19.83;;;128.60;2252.80;;;;;;5104491;28;20023;-75
2021/11/11 00:12:51;;;;;;;33.63;22.60;;;128.60;2252.80;;;;;;5102423;28;20050;-75
2021/11/11 00:15:17;;;;;;;35.50;19.85;;;128.60;2252.80;;;;;;5101858;28;20028;-75
2021/11/11 00:17:44;;;;;;;33.40;22.63;;;128.60;2252.80;;;;;;5105330;28;20085;-75
2021/11/11 00:20:12;;;;;;;33.35;20.90;;;128.60;2252.80;;;;;;5096082;28;20048;-75
2021/11/11 00:22:40;;;;;;;34.13;20.80;;;128.60;2252.80;;;;;;5107020;28;20016;-74
2021/11/11 00:25:08;;;;;;;36.13;21.85;;;128.70;2252.80;;;;;;5106256;28;20043;-75
2021/11/11 00:27:34;;;;;;;29.88;20.38;;;128.60;2252.80;;;;;;5106878;28;20056;-75
2021/11/11 00:30:00;;;;;;;35.63;22.33;;;128.70;2252.80;;;;;;5111171;28;20024;-75
2021/11/11 00:32:26;;;;;;;37.22;21.27;;;128.70;2252.80;;;;;;5112303;28;20054;-75
2021/11/11 00:34:52;;;;;;;32.85;19.65;;;128.70;2252.80;;;;;;5106094;28;20067;-75
2021/11/11 00:37:19;;;;;;;26.23;18.85;;;128.70;2252.80;;;;;;5101023;28;20056;-75
2021/11/11 00:39:45;;;;;;;28.67;18.80;;;128.70;2252.80;;;;;;5106851;28;20051;-75
2021/11/11 00:42:11;;;;;;;36.60;20.75;;;128.70;2252.80;;;;;;5105893;28;20535;-75
2021/11/11 00:44:37;;;;;;;33.50;19.65;;;128.60;2252.80;;;;;;5102931;28;20034;-75
2021/11/11 00:47:03;;;;;;;33.08;19.67;;;128.60;2252.80;;;;;;5103500;28;20036;-75
2021/11/11 00:49:29;;;;;;;26.45;17.50;;;128.60;2252.80;;;;;;5109694;28;20114;-75
2021/11/11 00:51:55;;;;;;;26.33;17.73;;;128.70;2252.80;;;;;;5108494;28;20123;-75
2021/11/11 00:54:21;;;;;;;30.98;20.52;;;128.70;2252.80;;;;;;5103916;28;20578;-75
2021/11/11 00:56:47;;;;;;;36.75;20.85;;;128.70;2252.80;;;;;;5100172;28;20030;-75
2021/11/11 00:59:13;;;;;;;36.05;20.92;;;128.70;2252.80;;;;;;5111433;28;20036;-75
2021/11/11 01:01:39;;;;;;;39.03;19.52;;;128.70;2252.80;;;;;;5111808;28;20061;-75
2021/11/11 01:04:05;;;;;;;25.98;16.85;;;128.70;2252.80;;;;;;5092180;28;20388;-75
2021/11/11 01:06:32;;;;;;;26.85;17.27;;;128.70;2252.80;;;;;;5096120;28;20024;-75
2021/11/11 01:08:58;;;;;;;28.58;18.30;;;128.70;2252.80;;;;;;5098784;28;20027;-75
2021/11/11 01:11:26;;;;;;;26.02;17.08;;;128.70;2252.80;;;;;;5091692;28;20027;-75
2021/11/11 01:13:52;;;;;;;25.63;17.35;;;128.70;2252.80;;;;;;5093496;28;20024;-75
2021/11/11 01:16:19;;;;;;;27.10;18.42;;;128.70;2252.80;;;;;;5103626;28;20036;-75
2021/11/11 01:18:44;;;;;;;25.35;16.02;;;128.70;2252.80;;;;;;5093190;28;20024;-75
2021/11/11 01:21:11;;;;;;;22.35;16.20;;;128.80;2252.80;;;;;;5108428;28;20031;-75
2021/11/11 01:23:36;;;;;;;26.92;17.15;;;128.80;2252.80;;;;;;5112147;28;20023;-75
2021/11/11 01:26:04;;;;;;;24.05;14.98;;;128.80;2252.80;;;;;;5111214;28;20381;-75
2021/11/11 01:28:31;;;;;;;26.75;16.10;;;128.80;2252.80;;;;;;5112197;28;20399;-75
2021/11/11 01:30:57;;;;;;;23.73;16.70;;;128.80;2252.80;;;;;;5112751;28;20084;-75
2021/11/11 01:33:23;;;;;;;24.30;15.68;;;128.80;2252.80;;;;;;5113216;28;20027;-75
2021/11/11 01:35:49;;;;;;;26.77;16.58;;;128.90;2252.80;;;;;;5111981;28;20080;-76
2021/11/11 01:38:16;;;;;;;23.83;15.88;;;128.90;2252.80;;;;;;5111030;28;20468;-76
2021/11/11 01:40:42;;;;;;;21.70;14.98;;;128.90;2252.80;;;;;;5113298;28;20024;-75
2021/11/11 01:43:08;;;;;;;19.88;14.00;;;128.90;2252.80;;;;;;5112727;28;20020;-76
2021/11/11 01:45:43;;;;;;;25.35;16.73;;;128.90;2252.80;;;;;;5111046;28;20032;-76
2021/11/11 01:48:12;;;;;;;24.48;14.20;;;128.80;2252.80;;;;;;5111004;28;20445;-75
2021/11/11 01:50:39;;;;;;;23.13;13.35;;;128.80;2252.80;;;;;;5112914;28;20023;-76
2021/11/11 01:53:09;;;;;;;23.20;15.73;;;128.80;2252.80;;;;;;5112775;28;20024;-76
2021/11/11 01:55:36;;;;;;;23.73;15.93;;;128.90;2252.80;;;;;;5111343;28;20118;-75
2021/11/11 01:58:02;;;;;;;23.65;15.35;;;128.80;2252.80;;;;;;5110791;28;20111;-75
2021/11/11 02:00:32;;;;;;;28.58;16.25;;;128.80;2252.80;;;;;;5112182;28;20575;-75
2021/11/11 02:03:01;;;;;;;22.77;14.68;;;128.80;2252.80;;;;;;5110789;28;20115;-75
2021/11/11 02:05:27;;;;;;;28.95;17.00;;;128.80;2252.80;;;;;;5111210;28;20397;-76
2021/11/11 02:07:54;;;;;;;22.15;14.60;;;128.80;2252.80;;;;;;5111665;28;20027;-75
2021/11/11 02:10:21;;;;;;;22.20;15.30;;;128.80;2252.80;;;;;;5112352;28;20024;-75
2021/11/11 02:12:48;;;;;;;24.67;15.07;;;128.90;2252.80;;;;;;5112019;28;20070;-75
2021/11/11 02:15:15;;;;;;;25.38;15.75;;;128.80;2252.80;;;;;;5112428;28;20103;-76
2021/11/11 02:17:41;;;;;;;26.65;17.55;;;128.80;2252.80;;;;;;5110665;28;20043;-75
2021/11/11 02:20:11;;;;;;;28.88;17.83;;;128.90;2252.80;;;;;;5112134;28;20023;-75
2021/11/11 02:22:37;;;;;;;24.17;14.63;;;128.90;2252.80;;;;;;5101652;28;20169;-75
2021/11/11 02:25:12;;;;;;;24.73;15.13;;;128.90;2252.80;;;;;;5100328;28;20488;-75
2021/11/11 02:27:38;;;;;;;23.00;14.63;;;128.80;2252.80;;;;;;5111406;28;20058;-75
2021/11/11 02:30:08;;;;;;;24.60;13.35;;;128.80;2252.80;;;;;;5111071;28;20034;-74
2021/11/11 02:32:34;;;;;;;22.27;13.23;;;128.80;2252.80;;;;;;5111887;28;20028;-74
2021/11/11 02:35:01;;;;;;;21.35;12.82;;;128.80;2252.80;;;;;;5109887;28;20032;-75
2021/11/11 02:37:28;;;;;;;21.98;15.15;;;128.70;2252.80;;;;;;5112208;28;20028;-75
2021/11/11 02:39:54;;;;;;;22.35;15.02;;;128.70;2252.80;;;;;;5111750;28;20058;-74
2021/11/11 02:42:21;;;;;;;22.02;13.38;;;128.80;2252.80;;;;;;5112167;28;20026;-75
2021/11/11 02:44:47;;;;;;;25.20;15.93;;;128.80;2252.80;;;;;;5111758;28;20030;-75
2021/11/11 02:47:13;;;;;;;20.45;13.35;;;128.70;2252.80;;;;;;5109758;28;20047;-76
2021/11/11 02:49:40;;;;;;;22.25;13.98;;;128.70;2252.80;;;;;;5089704;28;20111;-75
2021/11/11 02:52:07;;;;;;;20.63;13.30;;;128.70;2252.80;;;;;;5089696;28;20024;-75
2021/11/11 02:54:38;;;;;;;23.17;15.82;;;128.70;2252.80;;;;;;5091576;28;20480;-75
2021/11/11 02:57:18;;;;;;;23.70;16.13;;;128.70;2252.80;;;;;;5091018;28;20119;-75
2021/11/11 02:59:44;;;;;;;25.35;17.52;;;128.70;2252.80;;;;;;5089972;28;20024;-75
2021/11/11 03:02:21;;;;;;;22.20;15.73;;;128.70;2252.80;;;;;;5090533;28;20020;-75
2021/11/11 03:08:12;;;;;;;21.27;15.35;;;128.60;2252.80;;;;;;5091584;28;20027;-75
2021/11/11 03:10:40;;;;;;;19.52;14.15;;;128.60;2252.80;;;;;;5111105;28;20486;-75
2021/11/11 03:13:08;;;;;;;22.35;14.02;;;128.60;2252.80;;;;;;5115476;28;20031;-75
2021/11/11 03:15:34;;;;;;;20.95;13.82;;;128.60;2252.80;;;;;;5113567;28;20438;-75
2021/11/11 03:18:00;;;;;;;19.00;13.07;;;128.60;2252.80;;;;;;5112283;28;20435;-76
2021/11/11 03:20:28;;;;;;;17.55;11.48;;;128.60;2252.80;;;;;;5095621;28;20035;-75
2021/11/11 03:22:54;;;;;;;19.65;11.88;;;128.50;2252.80;;;;;;5095167;28;20024;-75
2021/11/11 03:25:23;;;;;;;21.33;12.40;;;128.50;2252.80;;;;;;5094058;28;20111;-75
2021/11/11 03:27:51;;;;;;;18.88;11.88;;;128.50;2252.80;;;;;;5093933;28;20051;-75
2021/11/11 03:30:19;;;;;;;16.63;12.23;;;128.50;2252.80;;;;;;5094131;28;20031;-75
2021/11/11 03:32:45;;;;;;;23.75;11.98;;;128.40;2252.80;;;;;;5095059;28;20024;-76
2021/11/11 03:35:12;;;;;;;22.20;12.00;;;128.40;2252.80;;;;;;5093641;28;20020;-75
2021/11/11 03:37:40;;;;;;;21.35;12.57;;;128.50;2252.80;;;;;;5094516;28;20036;-76
2021/11/11 03:40:09;;;;;;;20.23;13.25;;;128.40;2252.80;;;;;;5093342;28;20480;-75
2021/11/11 03:42:35;;;;;;;21.48;13.32;;;128.40;2252.80;;;;;;5094651;28;20095;-75
2021/11/11 03:45:03;;;;;;;23.70;13.80;;;128.30;2252.80;;;;;;5094717;28;20070;-75
2021/11/11 03:47:28;;;;;;;17.23;11.23;;;128.30;2252.80;;;;;;5133695;27;20150;-75
2021/11/11 03:49:55;;;;;;;22.75;12.35;;;128.30;2252.80;;;;;;5116495;27;20113;-75
2021/11/11 03:52:21;;;;;;;18.85;12.57;;;128.30;2252.80;;;;;;5116351;27;20582;-75
2021/11/11 03:54:48;;;;;;;19.58;12.95;;;128.30;2252.80;;;;;;5134791;27;20120;-75
2021/11/11 03:57:14;;;;;;;24.00;13.90;;;128.20;2252.80;;;;;;5135281;27;20175;-76
2021/11/11 03:59:39;;;;;;;20.88;13.48;;;128.30;2252.80;;;;;;5134843;27;20024;-75
2021/11/11 04:02:06;;;;;;;25.55;15.55;;;128.20;2252.80;;;;;;5135134;27;20019;-75
2021/11/11 04:04:33;;;;;;;24.90;16.10;;;128.20;2252.80;;;;;;5117400;27;20020;-75
2021/11/11 04:06:59;;;;;;;24.05;14.95;;;128.20;2252.80;;;;;;5116698;27;20495;-75
2021/11/11 04:09:26;;;;;;;22.77;14.63;;;128.20;2252.80;;;;;;5117055;27;20028;-75
2021/11/11 04:11:52;;;;;;;25.05;15.73;;;128.20;2252.80;;;;;;5108691;28;20069;-75
2021/11/11 04:14:18;;;;;;;23.85;15.13;;;128.20;2252.80;;;;;;5114481;28;20023;-75
2021/11/11 04:16:45;;;;;;;24.10;15.95;;;128.10;2252.80;;;;;;5113510;27;20035;-75
2021/11/11 04:19:12;;;;;;;22.38;16.13;;;128.10;2252.80;;;;;;5135081;27;20024;-75
2021/11/11 04:21:37;;;;;;;30.17;18.40;;;128.00;2252.80;;;;;;5115460;27;20022;-75
2021/11/11 04:24:04;;;;;;;33.53;18.70;;;128.10;2252.80;;;;;;5116200;27;20024;-75
2021/11/11 04:26:34;;;;;;;26.30;18.23;;;128.10;2252.80;;;;;;5116865;27;20027;-75
2021/11/11 04:29:06;;;;;;;29.65;17.75;;;128.20;2252.80;;;;;;5134912;27;20019;-75
2021/11/11 04:34:33;;;;;;;24.88;15.40;;;128.00;2252.80;;;;;;5071878;28;20028;-75
2021/11/11 05:00:56;;;;;;;26.10;15.52;;;103.20;2227.20;;;;;;5071737;28;20074;-75
2021/11/11 05:06:01;;;;;;;27.33;17.38;;;103.10;2227.20;;;;;;5071336;28;20021;-76
2021/11/11 05:08:27;;;;;;;25.15;15.55;;;103.10;2227.20;;;;;;5070812;28;20039;-75
2021/11/11 05:10:54;;;;;;;22.55;15.60;;;103.10;2227.20;;;;;;5088080;28;20492;-75
2021/11/11 05:13:20;;;;;;;24.58;14.57;;;103.10;2227.20;;;;;;5095187;28;20031;-75
2021/11/11 05:15:46;;;;;;;22.10;15.23;;;103.10;2227.20;;;;;;5095241;28;20039;-76
2021/11/11 05:18:12;;;;;;;25.08;15.77;;;103.10;2227.20;;;;;;5113214;28;20024;-75
2021/11/11 05:20:38;;;;;;;30.02;18.17;;;103.10;2227.20;;;;;;5118153;27;20023;-76
2021/11/11 05:23:04;;;;;;;24.85;15.75;;;103.10;2227.20;;;;;;5115521;27;20030;-75
2021/11/11 05:25:30;;;;;;;26.20;16.70;;;103.20;2227.20;;;;;;5133331;27;20437;-75
2021/11/11 05:27:56;;;;;;;31.45;17.58;;;103.20;2227.20;;;;;;5134118;27;20042;-76
2021/11/11 05:30:22;;;;;;;29.48;17.42;;;103.20;2227.20;;;;;;5133220;27;20023;-75
2021/11/11 05:32:50;;;;;;;37.20;21.08;;;103.30;2227.20;;;;;;5133899;27;20054;-75
2021/11/11 05:35:17;;;;;;;33.95;20.02;;;103.30;2227.20;;;;;;5114541;27;20034;-76
2021/11/11 05:37:43;;;;;;;35.42;22.00;;;103.30;2227.20;;;;;;5133260;27;20068;-76
2021/11/11 05:40:10;;;;;;;31.13;18.83;;;103.30;2227.20;;;;;;5105903;27;20019;-76
2021/11/11 05:42:36;;;;;;;30.98;17.92;;;103.30;2227.20;;;;;;5130969;27;20780;-76
2021/11/11 05:45:05;;;;;;;31.58;18.55;;;103.30;2227.20;;;;;;5113920;27;20058;-76
2021/11/11 05:47:31;;;;;;;28.15;17.25;;;103.20;2227.20;;;;;;5115547;27;20047;-76
2021/11/11 05:49:57;;;;;;;28.75;17.30;;;103.20;2227.20;;;;;;5115437;27;20167;-76
2021/11/11 05:52:23;;;;;;;23.60;14.70;;;103.20;2227.20;;;;;;5114498;27;20395;-75
2021/11/11 05:54:49;;;;;;;24.75;16.02;;;103.20;2227.20;;;;;;5114902;27;20019;-75
2021/11/11 05:57:15;;;;;;;24.15;15.25;;;103.20;2227.20;;;;;;5105879;28;20030;-75
2021/11/11 05:59:41;;;;;;;27.42;18.38;;;103.20;2227.20;;;;;;5094107;28;20031;-76
2021/11/11 06:02:11;;;;;;;24.40;17.85;;;103.20;2227.20;;;;;;5093606;28;20379;-76
2021/11/11 06:04:38;;;;;;;24.98;16.17;;;103.30;2227.20;;;;;;5094678;28;20028;-75
2021/11/11 06:07:05;;;;;;;28.13;16.63;;;103.30;2227.20;;;;;;5112331;28;20020;-75
2021/11/11 06:09:31;;;;;;;29.58;17.13;;;128.00;2252.80;;;;;;5112842;28;20559;-75
2021/11/11 06:11:56;;;;;;;29.50;20.60;;;128.00;2252.80;;;;;;5112360;28;20091;-76
2021/11/11 06:14:23;;;;;;;31.95;19.60;;;128.00;2252.80;;;;;;5111801;28;20046;-75
2021/11/11 06:16:48;;;;;;;29.85;19.08;;;128.10;2252.80;;;;;;5112245;28;20108;-75
2021/11/11 06:19:16;;;;;;;31.77;21.35;;;128.10;2252.80;;;;;;5112037;28;20106;-76
2021/11/11 06:21:42;;;;;;;32.45;21.67;;;128.10;2252.80;;;;;;5112609;28;20107;-75
2021/11/11 06:24:08;;;;;;;33.30;22.80;;;128.20;2252.80;;;;;;5112089;28;20108;-76
2021/11/11 06:26:34;;;;;;;30.85;21.35;;;128.20;2252.80;;;;;;5112165;28;20066;-75
2021/11/11 06:29:00;;;;;;;33.75;22.17;;;128.20;2252.80;;;;;;5093195;28;20037;-76
2021/11/11 06:31:26;;;;;;;32.90;20.75;;;128.20;2252.80;;;;;;5112516;28;20024;-76
2021/11/11 06:33:53;;;;;;;30.67;19.70;;;128.30;2252.80;;;;;;5132273;27;20038;-75
2021/11/11 06:36:19;;;;;;;32.25;19.60;;;128.30;2252.80;;;;;;5132141;27;20106;-76
2021/11/11 06:38:45;;;;;;;31.70;21.30;;;128.30;2252.80;;;;;;5132269;27;20156;-76
2021/11/11 06:41:11;;;;;;;32.83;21.15;;;128.40;2252.80;;;;;;5129275;27;20016;-76
2021/11/11 06:43:38;;;;;;;36.83;23.67;;;128.40;2252.80;;;;;;5122696;27;20079;-76
2021/11/11 06:46:06;;;;;;;32.38;23.33;;;128.50;2252.80;;;;;;5099887;28;20530;-75
2021/11/11 06:48:33;;;;;;;37.17;24.48;;;128.50;2252.80;;;;;;5099792;28;20043;-76
2021/11/11 06:50:59;;;;;;;39.60;25.63;;;128.50;2252.80;;;;;;5102200;28;20394;-76
2021/11/11 06:53:24;;;;;;;40.42;28.00;;;128.60;2252.80;;;;;;5109968;28;20451;-76
2021/11/11 06:55:50;;;;;;;54.80;31.98;;;128.70;2252.80;;;;;;5110154;28;20060;-76
2021/11/11 06:58:23;;;;;;;51.42;32.83;;;128.80;2252.80;;;;;;5099919;28;20082;-76
2021/11/11 07:00:57;;;;;;;58.45;35.83;;;128.80;2252.80;;;;;;5109562;28;20028;-76
2021/11/11 07:03:23;;;;;;;58.95;39.42;;;128.80;2252.80;;;;;;5104706;28;20358;-76
2021/11/11 07:05:49;;;;;;;48.42;34.13;;;128.80;2252.80;;;;;;5102213;28;20110;-76
2021/11/11 07:08:16;;;;;;;48.40;32.83;;;128.90;2252.80;;;;;;5103515;28;20036;-75
2021/11/11 07:10:45;;;;;;;54.05;35.17;;;128.90;2252.80;;;;;;5106401;28;20035;-76
2021/11/11 07:13:11;;;;;;;65.40;39.90;;;153.60;2252.80;;;;;;5104260;28;20555;-75
2021/11/11 07:15:38;;;;;;;72.35;47.05;;;153.60;2252.80;;;;;;5100369;28;20116;-76
2021/11/11 07:18:05;;;;;;;91.25;54.60;;;153.60;2252.80;;;;;;5097975;28;20052;-76
2021/11/11 07:20:31;;;;;;;85.35;52.53;;;153.60;2252.80;;;;;;5103370;28;20543;-75
2021/11/11 07:23:00;;;;;;;79.82;45.90;;;153.70;2252.80;;;;;;5111840;28;20027;-76
2021/11/11 07:25:27;;;;;;;73.75;44.95;;;153.70;2252.80;;;;;;5109900;28;20036;-76
2021/11/11 07:27:54;;;;;;;71.95;43.30;;;153.80;2252.80;;;;;;5111842;28;20052;-75
2021/11/11 07:30:21;;;;;;;66.80;44.88;;;153.90;2252.80;;;;;;5107774;28;20024;-75
2021/11/11 07:32:48;;;;;;;68.07;41.17;;;153.90;2252.80;;;;;;5103116;28;20043;-76
2021/11/11 07:35:15;;;;;;;64.30;42.67;;;154.00;2252.80;;;;;;5102530;28;20050;-75
2021/11/11 07:37:43;;;;;;;71.85;44.03;;;154.10;2252.80;;;;;;5091146;28;20024;-75
2021/11/11 07:40:11;;;;;;;65.97;42.28;;;154.10;2252.80;;;;;;5089444;28;20024;-76
2021/11/11 07:42:37;;;;;;;61.47;41.90;;;154.20;2252.80;;;;;;5091007;28;20024;-76
2021/11/11 07:45:05;;;;;;;69.53;41.83;;;154.20;2252.80;;;;;;5089920;28;20025;-75
2021/11/11 07:47:31;;;;;;;68.07;39.35;;;154.30;2252.80;;;;;;5090732;28;20405;-75
2021/11/11 07:49:58;;;;;;;50.22;31.23;;;154.40;2252.80;;;;;;5089958;28;20111;-75
2021/11/11 07:52:25;;;;;;;48.15;30.25;;;154.40;2252.80;;;;;;5090502;28;20032;-76
2021/11/11 07:54:51;;;;;;;44.03;26.58;;;179.20;2252.80;;;;;;5096482;28;20149;-75
2021/11/11 07:57:21;;;;;;;38.60;26.13;;;179.30;2252.80;;;;;;5099470;28;20114;-75
2021/11/11 07:59:48;;;;;;;52.33;27.08;;;179.40;2252.80;;;;;;5107146;28;20027;-75
2021/11/11 08:02:15;;;;;;;51.42;34.35;;;179.60;2252.80;;;;;;5108295;28;20012;-75
2021/11/11 08:04:40;;;;;;;52.38;37.47;;;179.70;2252.80;;;;;;5101930;28;20028;-75
2021/11/11 08:07:06;;;;;;;60.33;40.22;;;179.90;2252.80;;;;;;5104594;28;20028;-75
2021/11/11 08:09:32;;;;;;;60.17;38.95;;;180.00;2252.80;;;;;;5108450;28;20434;-75
2021/11/11 08:11:58;;;;;;;46.35;29.80;;;204.80;2252.80;;;;;;5102988;28;20024;-76
2021/11/11 08:14:25;;;;;;;35.28;23.75;;;205.00;2252.80;;;;;;5105103;28;20392;-76
2021/11/11 08:16:51;;;;;;;31.70;21.48;;;205.30;2252.80;;;;;;5105600;28;20020;-76
2021/11/11 08:19:17;;;;;;;39.28;23.40;;;205.60;2252.80;;;;;;5102102;28;20454;-76
2021/11/11 08:21:43;;;;;;;36.95;25.23;;;230.50;2252.80;;;;;;5105097;28;20036;-76
2021/11/11 08:24:09;;;;;;;34.00;24.58;;;230.90;2252.80;;;;;;5110312;28;20031;-75
2021/11/11 08:26:35;;;;;;;29.13;20.38;;;231.10;2252.80;;;;;;5113247;28;20015;-75
2021/11/11 08:29:01;;;;;;;53.67;43.15;;;231.30;2252.80;;;;;;5113293;28;20100;-76
2021/11/11 16:40:52;;;;;;;65.60;40.95;;;205.40;2252.80;;;;;;5105537;27;20370;-76
2021/11/11 16:43:17;;;;;;;81.05;45.30;;;205.40;2252.80;;;;;;5089005;28;20036;-76
2021/11/11 16:45:44;;;;;;;89.13;50.53;;;205.50;2252.80;;;;;;5087607;28;20040;-76
2021/11/11 16:48:10;;;;;;;125.70;76.45;;;205.50;2252.80;;;;;;5087445;28;20418;-75
2021/11/11 16:50:38;;;;;;;191.63;113.45;;;205.50;2252.80;;;;;;5087412;28;20031;-76
2021/11/11 16:53:04;;;;;;;249.40;149.77;;;205.60;2252.80;;;;;;5089173;28;20096;-76
2021/11/11 16:55:30;;;;;;;223.25;130.45;;;205.60;2252.80;;;;;;5088740;28;20095;-78
2021/11/11 16:57:57;;;;;;;181.48;110.28;;;205.60;2252.80;;;;;;5087846;28;20115;-77
2021/11/11 17:00:24;;;;;;;168.77;101.57;;;205.60;2252.80;;;;;;5088659;28;20035;-79
2021/11/11 17:02:50;;;;;;;112.47;69.07;;;205.70;2252.80;;;;;;5087644;28;20020;-78
2021/11/11 17:05:20;;;;;;;98.38;60.90;;;205.60;2252.80;;;;;;5088407;28;20028;-78
2021/11/11 17:07:46;;;;;;;73.30;47.90;;;205.60;2252.80;;;;;;5087427;28;20024;-77
2021/11/11 17:10:12;;;;;;;68.63;43.47;;;205.60;2252.80;;;;;;5086796;28;20024;-78
2021/11/11 17:12:37;;;;;;;47.03;33.75;;;205.60;2252.80;;;;;;5087021;28;20028;-78
2021/11/11 17:15:07;;;;;;;39.15;27.10;;;205.50;2252.80;;;;;;5087144;28;20048;-78
2021/11/11 17:17:33;;;;;;;37.53;24.95;;;205.50;2252.80;;;;;;5088235;28;20034;-78
2021/11/11 17:19:59;;;;;;;32.20;22.27;;;205.40;2252.80;;;;;;5087183;28;20035;-78
2021/11/11 17:23:00;;;;;;;37.55;23.90;;;205.40;2252.80;;;;;;5088172;28;20020;-78
2021/11/11 17:25:37;;;;;;;33.05;21.67;;;205.40;2252.80;;;;;;5086717;28;20081;-77
2021/11/11 17:30:52;;;;;;;41.03;27.23;;;205.30;2252.80;;;;;;5087791;28;20027;-78
2021/11/11 17:33:19;;;;;;;47.50;29.77;;;205.20;2252.80;;;;;;5087955;28;20028;-78
2021/11/11 17:35:46;;;;;;;89.45;44.55;;;205.10;2252.80;;;;;;5088060;28;20028;-78
2021/11/11 17:38:13;;;;;;;99.15;47.92;;;205.20;2252.80;;;;;;5086195;28;20025;-78
2021/11/11 17:40:40;;;;;;;85.95;46.63;;;205.20;2252.80;;;;;;5068234;28;20048;-78
2021/11/11 17:43:07;;;;;;;112.45;54.13;;;205.10;2252.80;;;;;;5067818;28;20028;-77
2021/11/11 17:48:05;;;;;;;60.80;34.10;;;205.10;2252.80;;;;;;5087820;28;20031;-78
2021/11/11 17:50:35;;;;;;;46.03;34.95;;;205.10;2252.80;;;;;;5083671;28;20394;-78
2021/11/11 17:53:07;;;;;;;38.55;28.23;;;205.10;2252.80;;;;;;5073309;28;20142;-78
2021/11/11 17:55:40;;;;;;;33.17;25.83;;;205.10;2252.80;;;;;;5072687;28;20029;-78
2021/11/11 17:58:09;;;;;;;33.47;21.55;;;205.10;2252.80;;;;;;5073050;28;20471;-78
2021/11/11 18:00:40;;;;;;;32.60;21.15;;;205.00;2252.80;;;;;;5072549;28;20071;-78
2021/11/11 18:03:06;;;;;;;28.05;19.27;;;205.00;2252.80;;;;;;5072422;28;20023;-78
